sensor_id;sensor_type;location;lat;lon;timestamp;pressure;altitude;pressure_sealevel;temperature;humidity
70976;BME280;58635;51.198;6.010;2023-07-08T00:00:44;101450.22;;;26.01;35.08
70976;BME280;58635;51.198;6.010;2023-07-08T00:03:11;101436.75;;;25.98;35.09
70976;BME280;58635;51.198;6.010;2023-07-08T00:05:38;101441.81;;;25.94;35.30
70976;BME280;58635;51.198;6.010;2023-07-08T00:08:04;101429.38;;;25.89;35.51
70976;BME280;58635;51.198;6.010;2023-07-08T00:10:31;101432.31;;;25.88;35.41
70976;BME280;58635;51.198;6.010;2023-07-08T00:12:58;101429.16;;;25.86;35.78
70976;BME280;58635;51.198;6.010;2023-07-08T00:15:27;101427.88;;;25.83;36.23
70976;BME280;58635;51.198;6.010;2023-07-08T00:17:54;101428.41;;;25.80;36.25
70976;BME280;58635;51.198;6.010;2023-07-08T00:20:36;101431.63;;;25.77;36.29
70976;BME280;58635;51.198;6.010;2023-07-08T00:23:03;101417.94;;;25.65;36.31
70976;BME280;58635;51.198;6.010;2023-07-08T00:25:32;101421.09;;;25.67;36.61
70976;BME280;58635;51.198;6.010;2023-07-08T00:27:59;101418.16;;;25.69;36.26
70976;BME280;58635;51.198;6.010;2023-07-08T00:30:31;101410.19;;;25.69;36.74
70976;BME280;58635;51.198;6.010;2023-07-08T00:32:58;101413.75;;;25.59;36.56
70976;BME280;58635;51.198;6.010;2023-07-08T00:35:36;101410.25;;;25.63;36.42
70976;BME280;58635;51.198;6.010;2023-07-08T00:51:38;101417.69;;;25.61;37.01
70976;BME280;58635;51.198;6.010;2023-07-08T00:54:09;101408.97;;;25.61;36.77
70976;BME280;58635;51.198;6.010;2023-07-08T00:56:43;101422.22;;;25.61;37.04
70976;BME280;58635;51.198;6.010;2023-07-08T00:59:19;101418.78;;;25.60;37.37
70976;BME280;58635;51.198;6.010;2023-07-08T01:01:48;101414.28;;;25.61;37.22
70976;BME280;58635;51.198;6.010;2023-07-08T01:04:28;101412.19;;;25.58;37.15
70976;BME280;58635;51.198;6.010;2023-07-08T01:06:59;101407.13;;;25.56;37.31
70976;BME280;58635;51.198;6.010;2023-07-08T01:09:29;101409.00;;;25.56;37.20
70976;BME280;58635;51.198;6.010;2023-07-08T01:11:58;101405.28;;;25.57;37.70
70976;BME280;58635;51.198;6.010;2023-07-08T01:14:30;101407.41;;;25.55;37.39
70976;BME280;58635;51.198;6.010;2023-07-08T01:16:58;101403.19;;;25.54;37.51
70976;BME280;58635;51.198;6.010;2023-07-08T01:19:25;101405.56;;;25.55;37.26
70976;BME280;58635;51.198;6.010;2023-07-08T01:22:00;101410.06;;;25.55;37.00
70976;BME280;58635;51.198;6.010;2023-07-08T01:24:29;101401.34;;;25.54;37.35
70976;BME280;58635;51.198;6.010;2023-07-08T01:26:57;101399.75;;;25.53;37.28
70976;BME280;58635;51.198;6.010;2023-07-08T01:29:24;101397.38;;;25.52;37.56
70976;BME280;58635;51.198;6.010;2023-07-08T01:31:50;101401.09;;;25.51;37.61
70976;BME280;58635;51.198;6.010;2023-07-08T01:34:17;101396.88;;;25.50;37.19
70976;BME280;58635;51.198;6.010;2023-07-08T01:36:51;101389.50;;;25.47;37.31
70976;BME280;58635;51.198;6.010;2023-07-08T01:39:20;101394.78;;;25.47;37.84
70976;BME280;58635;51.198;6.010;2023-07-08T01:41:48;101395.88;;;25.46;37.76
70976;BME280;58635;51.198;6.010;2023-07-08T01:44:29;101390.56;;;25.46;37.63
70976;BME280;58635;51.198;6.010;2023-07-08T01:47:22;101390.56;;;25.46;37.27
70976;BME280;58635;51.198;6.010;2023-07-08T01:49:49;101395.03;;;25.45;37.89
70976;BME280;58635;51.198;6.010;2023-07-08T01:52:16;101391.34;;;25.46;37.50
70976;BME280;58635;51.198;6.010;2023-07-08T01:54:43;101393.22;;;25.46;37.39
70976;BME280;58635;51.198;6.010;2023-07-08T01:57:10;101388.72;;;25.46;37.75
70976;BME280;58635;51.198;6.010;2023-07-08T01:59:36;101374.16;;;25.44;37.44
70976;BME280;58635;51.198;6.010;2023-07-08T02:02:02;101374.94;;;25.44;37.43
70976;BME280;58635;51.198;6.010;2023-07-08T02:04:29;101375.22;;;25.43;37.49
70976;BME280;58635;51.198;6.010;2023-07-08T02:06:59;101370.19;;;25.41;37.86
70976;BME280;58635;51.198;6.010;2023-07-08T02:09:26;101368.91;;;25.39;37.62
70976;BME280;58635;51.198;6.010;2023-07-08T02:11:53;101362.81;;;25.38;37.80
70976;BME280;58635;51.198;6.010;2023-07-08T02:14:20;101363.09;;;25.36;37.96
70976;BME280;58635;51.198;6.010;2023-07-08T02:16:46;101354.91;;;25.33;38.13
70976;BME280;58635;51.198;6.010;2023-07-08T02:19:13;101354.16;;;25.27;37.79
70976;BME280;58635;51.198;6.010;2023-07-08T02:21:40;101353.66;;;25.25;37.46
70976;BME280;58635;51.198;6.010;2023-07-08T02:24:07;101346.28;;;25.22;37.96
70976;BME280;58635;51.198;6.010;2023-07-08T02:26:33;101351.09;;;25.15;37.90
70976;BME280;58635;51.198;6.010;2023-07-08T02:29:00;101342.91;;;25.12;37.93
70976;BME280;58635;51.198;6.010;2023-07-08T02:31:27;101348.25;;;25.06;37.75
70976;BME280;58635;51.198;6.010;2023-07-08T02:33:54;101351.44;;;25.03;37.75
70976;BME280;58635;51.198;6.010;2023-07-08T02:36:21;101354.63;;;25.00;38.20
70976;BME280;58635;51.198;6.010;2023-07-08T02:38:47;101355.16;;;24.97;38.18
70976;BME280;58635;51.198;6.010;2023-07-08T02:41:14;101363.66;;;24.94;37.82
70976;BME280;58635;51.198;6.010;2023-07-08T02:43:40;101362.06;;;24.93;37.60
70976;BME280;58635;51.198;6.010;2023-07-08T02:46:06;101354.69;;;24.90;38.09
70976;BME280;58635;51.198;6.010;2023-07-08T02:48:33;101362.91;;;24.89;38.08
70976;BME280;58635;51.198;6.010;2023-07-08T02:51:01;101358.69;;;24.88;38.13
70976;BME280;58635;51.198;6.010;2023-07-08T02:53:28;101358.13;;;24.86;38.18
70976;BME280;58635;51.198;6.010;2023-07-08T02:55:54;101363.72;;;24.84;37.75
70976;BME280;58635;51.198;6.010;2023-07-08T02:58:21;101353.41;;;24.83;37.94
70976;BME280;58635;51.198;6.010;2023-07-08T03:00:55;101356.31;;;24.81;38.41
70976;BME280;58635;51.198;6.010;2023-07-08T03:03:22;101358.75;;;24.77;38.07
70976;BME280;58635;51.198;6.010;2023-07-08T03:06:03;101361.13;;;24.74;38.15
70976;BME280;58635;51.198;6.010;2023-07-08T03:08:31;101359.06;;;24.66;38.26
70976;BME280;58635;51.198;6.010;2023-07-08T03:11:01;101356.69;;;24.64;38.47
70976;BME280;58635;51.198;6.010;2023-07-08T03:13:28;101357.78;;;24.63;38.49
70976;BME280;58635;51.198;6.010;2023-07-08T03:15:56;101356.44;;;24.61;38.26
70976;BME280;58635;51.198;6.010;2023-07-08T03:18:23;101354.84;;;24.60;38.57
70976;BME280;58635;51.198;6.010;2023-07-08T03:20:50;101362.28;;;24.58;38.66
70976;BME280;58635;51.198;6.010;2023-07-08T03:23:16;101351.97;;;24.56;38.37
70976;BME280;58635;51.198;6.010;2023-07-08T03:25:43;101362.84;;;24.55;38.34
70976;BME280;58635;51.198;6.010;2023-07-08T03:28:09;101366.03;;;24.52;38.61
70976;BME280;58635;51.198;6.010;2023-07-08T03:30:39;101373.19;;;24.51;38.41
70976;BME280;58635;51.198;6.010;2023-07-08T03:33:06;101371.56;;;24.50;38.51
70976;BME280;58635;51.198;6.010;2023-07-08T03:35:32;101373.69;;;24.48;38.96
70976;BME280;58635;51.198;6.010;2023-07-08T03:37:58;101376.63;;;24.46;38.86
70976;BME280;58635;51.198;6.010;2023-07-08T03:40:25;101365.00;;;24.42;38.92
70976;BME280;58635;51.198;6.010;2023-07-08T03:42:51;101362.63;;;24.41;38.72
70976;BME280;58635;51.198;6.010;2023-07-08T03:45:17;101370.03;;;24.39;38.81
70976;BME280;58635;51.198;6.010;2023-07-08T03:47:44;101371.88;;;24.38;38.73
70976;BME280;58635;51.198;6.010;2023-07-08T03:50:28;101374.81;;;24.37;38.49
70976;BME280;58635;51.198;6.010;2023-07-08T03:52:55;101374.81;;;24.37;38.31
70976;BME280;58635;51.198;6.010;2023-07-08T03:55:22;101380.59;;;24.39;38.74
70976;BME280;58635;51.198;6.010;2023-07-08T03:57:48;101382.22;;;24.40;38.54
70976;BME280;58635;51.198;6.010;2023-07-08T04:00:15;101384.06;;;24.39;38.77
70976;BME280;58635;51.198;6.010;2023-07-08T04:02:42;101388.53;;;24.39;38.89
70976;BME280;58635;51.198;6.010;2023-07-08T04:05:17;101371.88;;;24.38;38.59
70976;BME280;58635;51.198;6.010;2023-07-08T04:07:45;101377.44;;;24.37;38.77
70976;BME280;58635;51.198;6.010;2023-07-08T04:10:12;101372.94;;;24.37;38.60
70976;BME280;58635;51.198;6.010;2023-07-08T04:12:39;101372.16;;;24.37;38.54
70976;BME280;58635;51.198;6.010;2023-07-08T04:15:08;101374.53;;;24.38;38.56
70976;BME280;58635;51.198;6.010;2023-07-08T04:17:42;101379.81;;;24.38;38.88
70976;BME280;58635;51.198;6.010;2023-07-08T04:20:10;101377.44;;;24.37;38.80
70976;BME280;58635;51.198;6.010;2023-07-08T04:22:37;101380.09;;;24.37;38.81
70976;BME280;58635;51.198;6.010;2023-07-08T04:25:03;101380.09;;;24.37;38.91
70976;BME280;58635;51.198;6.010;2023-07-08T04:27:30;101387.75;;;24.38;39.09
70976;BME280;58635;51.198;6.010;2023-07-08T04:29:56;101381.41;;;24.39;39.23
70976;BME280;58635;51.198;6.010;2023-07-08T04:32:23;101380.59;;;24.44;39.12
70976;BME280;58635;51.198;6.010;2023-07-08T04:34:52;101383.22;;;24.49;38.75
70976;BME280;58635;51.198;6.010;2023-07-08T04:37:18;101376.34;;;24.53;39.16
70976;BME280;58635;51.198;6.010;2023-07-08T04:39:45;101372.84;;;24.58;39.20
70976;BME280;58635;51.198;6.010;2023-07-08T04:42:13;101372.56;;;24.64;38.88
70976;BME280;58635;51.198;6.010;2023-07-08T04:44:42;101370.41;;;24.71;38.83
70976;BME280;58635;51.198;6.010;2023-07-08T04:47:08;101383.63;;;24.76;38.97
70976;BME280;58635;51.198;6.010;2023-07-08T04:49:35;101386.22;;;24.82;38.55
70976;BME280;58635;51.198;6.010;2023-07-08T04:52:02;101385.38;;;24.86;38.50
70976;BME280;58635;51.198;6.010;2023-07-08T04:54:28;101384.31;;;24.92;38.91
70976;BME280;58635;51.198;6.010;2023-07-08T04:56:55;101381.09;;;25.00;38.94
70976;BME280;58635;51.198;6.010;2023-07-08T04:59:23;101383.41;;;25.12;38.49
70976;BME280;58635;51.198;6.010;2023-07-08T05:01:51;101385.72;;;25.24;37.88
70976;BME280;58635;51.198;6.010;2023-07-08T05:04:20;101386.41;;;25.34;38.15
70976;BME280;58635;51.198;6.010;2023-07-08T05:06:47;101392.94;;;25.47;37.73
70976;BME280;58635;51.198;6.010;2023-07-08T05:09:14;101381.44;;;25.57;37.85
70976;BME280;58635;51.198;6.010;2023-07-08T05:11:40;101381.34;;;25.67;37.33
70976;BME280;58635;51.198;6.010;2023-07-08T05:14:07;101386.00;;;25.80;37.60
70976;BME280;58635;51.198;6.010;2023-07-08T05:16:34;101386.69;;;25.91;37.41
70976;BME280;58635;51.198;6.010;2023-07-08T05:19:02;101388.66;;;26.04;37.33
70976;BME280;58635;51.198;6.010;2023-07-08T05:21:30;101385.59;;;26.21;37.23
70976;BME280;58635;51.198;6.010;2023-07-08T05:24:01;101375.84;;;26.35;37.07
70976;BME280;58635;51.198;6.010;2023-07-08T05:26:27;101382.06;;;26.49;36.60
70976;BME280;58635;51.198;6.010;2023-07-08T05:28:54;101384.25;;;26.66;36.74
70976;BME280;58635;51.198;6.010;2023-07-08T05:31:20;101379.78;;;26.80;36.36
70976;BME280;58635;51.198;6.010;2023-07-08T05:33:47;101382.22;;;26.96;36.35
70976;BME280;58635;51.198;6.010;2023-07-08T05:36:13;101387.59;;;27.09;36.10
70976;BME280;58635;51.198;6.010;2023-07-08T05:38:39;101399.66;;;27.21;35.75
70976;BME280;58635;51.198;6.010;2023-07-08T05:41:06;101391.97;;;27.19;35.82
70976;BME280;58635;51.198;6.010;2023-07-08T05:43:32;101391.34;;;27.08;35.99
70976;BME280;58635;51.198;6.010;2023-07-08T05:46:02;101390.19;;;26.96;36.38
70976;BME280;58635;51.198;6.010;2023-07-08T05:48:28;101382.22;;;26.96;36.36
70976;BME280;58635;51.198;6.010;2023-07-08T05:50:55;101383.97;;;27.05;36.06
70976;BME280;58635;51.198;6.010;2023-07-08T05:53:22;101381.94;;;27.16;35.96
70976;BME280;58635;51.198;6.010;2023-07-08T05:55:49;101380.69;;;27.27;35.68
70976;BME280;58635;51.198;6.010;2023-07-08T05:58:16;101393.91;;;27.46;35.68
70976;BME280;58635;51.198;6.010;2023-07-08T06:00:43;101394.47;;;27.62;35.41
70976;BME280;58635;51.198;6.010;2023-07-08T06:03:09;101383.75;;;27.81;35.19
70976;BME280;58635;51.198;6.010;2023-07-08T06:05:37;101382.47;;;28.06;34.67
70976;BME280;58635;51.198;6.010;2023-07-08T06:08:05;101387.13;;;28.28;34.59
70976;BME280;58635;51.198;6.010;2023-07-08T06:10:31;101385.13;;;28.47;34.30
70976;BME280;58635;51.198;6.010;2023-07-08T06:12:58;101383.91;;;28.67;33.92
70976;BME280;58635;51.198;6.010;2023-07-08T06:15:24;101388.75;;;28.87;33.71
70976;BME280;58635;51.198;6.010;2023-07-08T06:17:50;101388.50;;;29.11;33.37
70976;BME280;58635;51.198;6.010;2023-07-08T06:20:17;101392.53;;;29.31;32.83
70976;BME280;58635;51.198;6.010;2023-07-08T06:22:43;101385.88;;;29.42;32.85
70976;BME280;58635;51.198;6.010;2023-07-08T06:25:09;101393.34;;;29.54;31.99
70976;BME280;58635;51.198;6.010;2023-07-08T06:27:45;101392.59;;;29.62;31.57
70976;BME280;58635;51.198;6.010;2023-07-08T06:30:11;101398.91;;;29.75;31.55
70976;BME280;58635;51.198;6.010;2023-07-08T06:32:38;101398.78;;;29.80;31.71
70976;BME280;58635;51.198;6.010;2023-07-08T06:35:05;101392.22;;;29.86;30.96
70976;BME280;58635;51.198;6.010;2023-07-08T06:37:31;101389.28;;;29.96;31.26
70976;BME280;58635;51.198;6.010;2023-07-08T06:39:57;101394.84;;;30.08;30.49
70976;BME280;58635;51.198;6.010;2023-07-08T06:42:24;101396.28;;;30.23;30.58
70976;BME280;58635;51.198;6.010;2023-07-08T06:44:50;101390.81;;;30.45;29.99
70976;BME280;58635;51.198;6.010;2023-07-08T06:47:21;101395.41;;;30.71;30.21
70976;BME280;58635;51.198;6.010;2023-07-08T06:49:48;101399.63;;;30.89;29.79
70976;BME280;58635;51.198;6.010;2023-07-08T06:52:14;101393.81;;;31.04;29.38
70976;BME280;58635;51.198;6.010;2023-07-08T06:54:41;101390.34;;;31.21;29.20
70976;BME280;58635;51.198;6.010;2023-07-08T06:57:07;101392.69;;;31.40;29.48
70976;BME280;58635;51.198;6.010;2023-07-08T06:59:35;101396.06;;;31.58;29.11
70976;BME280;58635;51.198;6.010;2023-07-08T07:02:01;101401.84;;;31.68;29.03
70976;BME280;58635;51.198;6.010;2023-07-08T07:04:28;101403.88;;;31.80;28.80
70976;BME280;58635;51.198;6.010;2023-07-08T07:06:54;101411.75;;;31.85;28.82
70976;BME280;58635;51.198;6.010;2023-07-08T07:09:20;101410.97;;;31.76;28.97
70976;BME280;58635;51.198;6.010;2023-07-08T07:11:47;101413.22;;;31.57;29.03
70976;BME280;58635;51.198;6.010;2023-07-08T07:14:13;101395.81;;;31.42;28.74
70976;BME280;58635;51.198;6.010;2023-07-08T07:16:39;101402.91;;;31.29;28.78
70976;BME280;58635;51.198;6.010;2023-07-08T07:19:06;101403.56;;;31.26;29.19
70976;BME280;58635;51.198;6.010;2023-07-08T07:21:32;101399.28;;;31.42;29.23
70976;BME280;58635;51.198;6.010;2023-07-08T07:23:59;101405.16;;;31.65;28.93
70976;BME280;58635;51.198;6.010;2023-07-08T07:26:25;101402.41;;;31.91;28.35
70976;BME280;58635;51.198;6.010;2023-07-08T07:28:51;101396.44;;;32.15;28.27
70976;BME280;58635;51.198;6.010;2023-07-08T07:31:18;101400.09;;;32.40;27.78
70976;BME280;58635;51.198;6.010;2023-07-08T07:33:44;101397.69;;;32.68;27.31
70976;BME280;58635;51.198;6.010;2023-07-08T07:36:10;101401.06;;;32.98;27.42
70976;BME280;58635;51.198;6.010;2023-07-08T07:38:37;101402.28;;;33.34;27.16
70976;BME280;58635;51.198;6.010;2023-07-08T07:41:03;101391.84;;;33.65;26.29
70976;BME280;58635;51.198;6.010;2023-07-08T07:43:33;101403.47;;;33.94;25.53
70976;BME280;58635;51.198;6.010;2023-07-08T07:46:00;101399.00;;;34.10;25.20
70976;BME280;58635;51.198;6.010;2023-07-08T07:48:26;101402.00;;;34.21;24.93
70976;BME280;58635;51.198;6.010;2023-07-08T07:50:52;101402.13;;;34.12;24.91
70976;BME280;58635;51.198;6.010;2023-07-08T07:53:19;101399.69;;;33.95;25.15
70976;BME280;58635;51.198;6.010;2023-07-08T07:55:45;101388.25;;;33.98;25.54
70976;BME280;58635;51.198;6.010;2023-07-08T07:58:11;101396.09;;;34.15;25.02
70976;BME280;58635;51.198;6.010;2023-07-08T08:00:38;101399.88;;;34.39;24.63
70976;BME280;58635;51.198;6.010;2023-07-08T08:03:05;101385.81;;;34.57;24.98
70976;BME280;58635;51.198;6.010;2023-07-08T08:05:31;101385.78;;;34.70;24.70
70976;BME280;58635;51.198;6.010;2023-07-08T08:07:58;101383.25;;;34.77;24.81
70976;BME280;58635;51.198;6.010;2023-07-08T08:10:24;101390.75;;;34.83;25.23
70976;BME280;58635;51.198;6.010;2023-07-08T08:12:51;101385.94;;;34.89;24.87
70976;BME280;58635;51.198;6.010;2023-07-08T08:15:20;101381.09;;;34.95;25.16
70976;BME280;58635;51.198;6.010;2023-07-08T08:17:46;101383.09;;;34.98;24.64
70976;BME280;58635;51.198;6.010;2023-07-08T08:20:15;101387.41;;;35.02;24.65
70976;BME280;58635;51.198;6.010;2023-07-08T08:22:41;101393.22;;;35.04;24.92
70976;BME280;58635;51.198;6.010;2023-07-08T08:25:08;101393.00;;;35.09;25.05
70976;BME280;58635;51.198;6.010;2023-07-08T08:27:34;101393.19;;;35.16;24.54
70976;BME280;58635;51.198;6.010;2023-07-08T08:30:01;101396.66;;;35.17;24.80
70976;BME280;58635;51.198;6.010;2023-07-08T08:32:27;101401.25;;;35.16;24.47
70976;BME280;58635;51.198;6.010;2023-07-08T08:34:53;101393.19;;;35.16;24.82
70976;BME280;58635;51.198;6.010;2023-07-08T08:37:20;101396.97;;;35.15;25.01
70976;BME280;58635;51.198;6.010;2023-07-08T08:39:46;101403.66;;;35.22;24.95
70976;BME280;58635;51.198;6.010;2023-07-08T08:42:28;101405.75;;;35.28;24.53
70976;BME280;58635;51.198;6.010;2023-07-08T08:44:58;101414.94;;;35.27;24.66
70976;BME280;58635;51.198;6.010;2023-07-08T08:47:40;101408.13;;;35.30;24.50
70976;BME280;58635;51.198;6.010;2023-07-08T08:50:27;101404.38;;;35.34;24.14
70976;BME280;58635;51.198;6.010;2023-07-08T08:52:55;101408.41;;;35.40;24.30
70976;BME280;58635;51.198;6.010;2023-07-08T08:55:24;101413.72;;;35.53;24.50
70976;BME280;58635;51.198;6.010;2023-07-08T09:00:44;101410.56;;;35.66;24.16
70976;BME280;58635;51.198;6.010;2023-07-08T09:03:15;101419.56;;;35.74;23.98
70976;BME280;58635;51.198;6.010;2023-07-08T09:05:45;101414.38;;;35.81;24.05
70976;BME280;58635;51.198;6.010;2023-07-08T09:08:16;101411.53;;;35.90;23.93
70976;BME280;58635;51.198;6.010;2023-07-08T09:10:58;101405.16;;;35.98;23.72
70976;BME280;58635;51.198;6.010;2023-07-08T09:13:32;101409.41;;;35.99;23.63
70976;BME280;58635;51.198;6.010;2023-07-08T09:16:33;101398.31;;;36.00;24.09
70976;BME280;58635;51.198;6.010;2023-07-08T09:22:06;101396.94;;;36.10;23.76
70976;BME280;58635;51.198;6.010;2023-07-08T09:24:44;101398.59;;;36.15;23.94
70976;BME280;58635;51.198;6.010;2023-07-08T09:27:11;101399.81;;;36.17;24.49
70976;BME280;58635;51.198;6.010;2023-07-08T09:29:38;101400.59;;;36.18;23.96
70976;BME280;58635;51.198;6.010;2023-07-08T09:32:15;101403.44;;;36.25;23.71
70976;BME280;58635;51.198;6.010;2023-07-08T09:35:19;101398.19;;;36.32;23.69
70976;BME280;58635;51.198;6.010;2023-07-08T09:37:38;101392.31;;;36.46;23.41
70976;BME280;58635;51.198;6.010;2023-07-08T09:40:23;101387.66;;;36.62;23.29
70976;BME280;58635;51.198;6.010;2023-07-08T09:42:59;101388.56;;;36.70;23.39
70976;BME280;58635;51.198;6.010;2023-07-08T09:45:27;101390.84;;;36.68;23.74
70976;BME280;58635;51.198;6.010;2023-07-08T09:47:57;101383.09;;;36.66;23.87
70976;BME280;58635;51.198;6.010;2023-07-08T09:50:28;101384.31;;;36.69;23.51
70976;BME280;58635;51.198;6.010;2023-07-08T09:52:56;101386.72;;;36.74;23.29
70976;BME280;58635;51.198;6.010;2023-07-08T09:55:27;101391.56;;;36.65;23.57
70976;BME280;58635;51.198;6.010;2023-07-08T09:57:55;101390.78;;;36.64;23.67
70976;BME280;58635;51.198;6.010;2023-07-08T10:00:31;101399.28;;;36.66;23.15
70976;BME280;58635;51.198;6.010;2023-07-08T10:03:08;101397.41;;;36.70;23.69
70976;BME280;58635;51.198;6.010;2023-07-08T10:05:38;101397.88;;;36.72;23.44
70976;BME280;58635;51.198;6.010;2023-07-08T10:08:16;101401.13;;;36.81;23.47
70976;BME280;58635;51.198;6.010;2023-07-08T10:10:43;101403.13;;;36.84;23.19
70976;BME280;58635;51.198;6.010;2023-07-08T10:13:38;101395.16;;;36.92;23.29
70976;BME280;58635;51.198;6.010;2023-07-08T10:16:28;101389.94;;;37.02;23.10
70976;BME280;58635;51.198;6.010;2023-07-08T10:18:56;101391.28;;;37.12;23.12
70976;BME280;58635;51.198;6.010;2023-07-08T10:24:37;101387.94;;;37.18;22.27
70976;BME280;58635;51.198;6.010;2023-07-08T10:40:34;101395.94;;;37.61;21.97
70976;BME280;58635;51.198;6.010;2023-07-08T10:43:19;101396.19;;;37.75;21.85
70976;BME280;58635;51.198;6.010;2023-07-08T10:49:07;101405.72;;;37.95;21.51
70976;BME280;58635;51.198;6.010;2023-07-08T10:52:14;101405.78;;;37.99;21.39
70976;BME280;58635;51.198;6.010;2023-07-08T11:07:47;101391.53;;;38.99;20.56
70976;BME280;58635;51.198;6.010;2023-07-08T11:13:20;101392.03;;;39.56;19.95
70976;BME280;58635;51.198;6.010;2023-07-08T11:15:58;101385.59;;;39.79;19.70
70976;BME280;58635;51.198;6.010;2023-07-08T11:24:10;101392.53;;;40.56;18.62
70976;BME280;58635;51.198;6.010;2023-07-08T11:26:43;101390.63;;;40.71;18.76
70976;BME280;58635;51.198;6.010;2023-07-08T11:29:37;101395.69;;;40.79;18.16
70976;BME280;58635;51.198;6.010;2023-07-08T11:32:13;101386.41;;;40.84;18.20
70976;BME280;58635;51.198;6.010;2023-07-08T11:34:42;101382.56;;;41.03;18.16
70976;BME280;58635;51.198;6.010;2023-07-08T11:37:10;101380.63;;;41.21;17.70
70976;BME280;58635;51.198;6.010;2023-07-08T11:42:13;101392.22;;;41.54;17.47
70976;BME280;58635;51.198;6.010;2023-07-08T11:44:47;101392.97;;;41.65;16.74
70976;BME280;58635;51.198;6.010;2023-07-08T11:47:20;101377.44;;;41.80;16.84
70976;BME280;58635;51.198;6.010;2023-07-08T11:49:52;101378.97;;;41.95;17.07
70976;BME280;58635;51.198;6.010;2023-07-08T11:52:21;101374.66;;;42.04;16.80
70976;BME280;58635;51.198;6.010;2023-07-08T11:54:55;101373.47;;;42.02;16.81
70976;BME280;58635;51.198;6.010;2023-07-08T11:57:31;101373.09;;;42.00;16.80
70976;BME280;58635;51.198;6.010;2023-07-08T12:00:13;101366.53;;;41.94;16.72
70976;BME280;58635;51.198;6.010;2023-07-08T12:02:53;101362.66;;;41.88;16.71
70976;BME280;58635;51.198;6.010;2023-07-08T12:05:33;101362.69;;;41.84;16.72
70976;BME280;58635;51.198;6.010;2023-07-08T12:08:01;101365.44;;;41.81;16.79
70976;BME280;58635;51.198;6.010;2023-07-08T12:10:38;101357.63;;;41.86;16.70
70976;BME280;58635;51.198;6.010;2023-07-08T12:13:12;101354.44;;;42.02;16.64
70976;BME280;58635;51.198;6.010;2023-07-08T12:15:40;101363.31;;;42.24;16.46
70976;BME280;58635;51.198;6.010;2023-07-08T12:18:19;101357.41;;;42.40;15.68
70976;BME280;58635;51.198;6.010;2023-07-08T12:20:56;101353.16;;;42.35;15.38
70976;BME280;58635;51.198;6.010;2023-07-08T12:23:25;101348.88;;;42.34;15.17
70976;BME280;58635;51.198;6.010;2023-07-08T12:25:52;101342.31;;;42.31;15.03
70976;BME280;58635;51.198;6.010;2023-07-08T12:28:19;101346.22;;;42.23;14.95
70976;BME280;58635;51.198;6.010;2023-07-08T12:30:47;101347.41;;;42.22;15.28
70976;BME280;58635;51.198;6.010;2023-07-08T12:33:27;101333.03;;;42.22;15.45
70976;BME280;58635;51.198;6.010;2023-07-08T12:35:55;101333.72;;;42.40;15.74
70976;BME280;58635;51.198;6.010;2023-07-08T12:38:31;101342.13;;;42.64;15.46
70976;BME280;58635;51.198;6.010;2023-07-08T12:41:00;101346.59;;;42.84;15.49
70976;BME280;58635;51.198;6.010;2023-07-08T12:43:37;101336.41;;;42.99;15.31
70976;BME280;58635;51.198;6.010;2023-07-08T12:46:03;101340.19;;;43.12;15.08
70976;BME280;58635;51.198;6.010;2023-07-08T12:48:36;101329.56;;;43.25;14.85
70976;BME280;58635;51.198;6.010;2023-07-08T12:51:03;101341.13;;;43.36;15.01
70976;BME280;58635;51.198;6.010;2023-07-08T12:53:29;101332.91;;;43.40;14.67
70976;BME280;58635;51.198;6.010;2023-07-08T12:55:58;101339.44;;;43.50;14.36
70976;BME280;58635;51.198;6.010;2023-07-08T12:58:28;101333.53;;;43.55;14.39
70976;BME280;58635;51.198;6.010;2023-07-08T13:00:55;101329.22;;;43.57;14.35
70976;BME280;58635;51.198;6.010;2023-07-08T13:03:28;101326.50;;;43.57;14.67
70976;BME280;58635;51.198;6.010;2023-07-08T13:05:55;101322.50;;;43.65;14.34
70976;BME280;58635;51.198;6.010;2023-07-08T13:08:24;101331.75;;;43.75;14.70
70976;BME280;58635;51.198;6.010;2023-07-08T13:10:52;101329.72;;;43.83;14.73
70976;BME280;58635;51.198;6.010;2023-07-08T13:13:22;101337.84;;;43.86;14.46
70976;BME280;58635;51.198;6.010;2023-07-08T13:15:48;101339.69;;;43.93;14.52
70976;BME280;58635;51.198;6.010;2023-07-08T13:18:16;101340.50;;;43.93;14.45
70976;BME280;58635;51.198;6.010;2023-07-08T13:20:45;101338.53;;;43.94;14.58
70976;BME280;58635;51.198;6.010;2023-07-08T13:23:12;101338.78;;;44.03;14.55
70976;BME280;58635;51.198;6.010;2023-07-08T13:25:38;101342.41;;;43.96;14.41
70976;BME280;58635;51.198;6.010;2023-07-08T13:28:22;101350.16;;;43.98;14.44
70976;BME280;58635;51.198;6.010;2023-07-08T13:31:01;101343.22;;;43.93;14.86
70976;BME280;58635;51.198;6.010;2023-07-08T13:33:31;101343.16;;;43.97;14.49
70976;BME280;58635;51.198;6.010;2023-07-08T13:35:58;101346.31;;;43.95;14.09
70976;BME280;58635;51.198;6.010;2023-07-08T13:38:32;101346.16;;;44.06;14.44
70976;BME280;58635;51.198;6.010;2023-07-08T13:41:02;101348.81;;;44.13;14.27
70976;BME280;58635;51.198;6.010;2023-07-08T13:43:49;101337.22;;;44.05;14.55
70976;BME280;58635;51.198;6.010;2023-07-08T13:49:09;101330.81;;;44.19;14.59
70976;BME280;58635;51.198;6.010;2023-07-08T13:51:36;101329.13;;;44.29;14.84
70976;BME280;58635;51.198;6.010;2023-07-08T13:54:24;101335.22;;;44.37;14.99
70976;BME280;58635;51.198;6.010;2023-07-08T13:56:51;101331.97;;;44.45;14.61
70976;BME280;58635;51.198;6.010;2023-07-08T13:59:25;101329.97;;;44.53;14.50
70976;BME280;58635;51.198;6.010;2023-07-08T14:01:54;101331.38;;;44.61;13.96
70976;BME280;58635;51.198;6.010;2023-07-08T14:04:30;101329.06;;;44.59;14.31
70976;BME280;58635;51.198;6.010;2023-07-08T14:06:56;101334.44;;;44.63;14.48
70976;BME280;58635;51.198;6.010;2023-07-08T14:09:22;101330.09;;;44.42;14.28